sensor_id;sensor_type;location;lat;lon;timestamp;P1;durP1;ratioP1;P2;durP2;ratioP2
72590;SDS011;60625;51.212;5.952;2023-05-07T00:02:21;13.30;;;9.00;;
72590;SDS011;60625;51.212;5.952;2023-05-07T00:07:22;12.60;;;9.30;;
72590;SDS011;60625;51.212;5.952;2023-05-07T00:12:23;13.00;;;9.40;;
72590;SDS011;60625;51.212;5.952;2023-05-07T00:17:23;15.70;;;9.90;;
72590;SDS011;60625;51.212;5.952;2023-05-07T00:22:24;14.10;;;10.10;;
72590;SDS011;60625;51.212;5.952;2023-05-07T00:27:25;13.50;;;10.00;;
72590;SDS011;60625;51.212;5.952;2023-05-07T00:32:26;14.30;;;9.40;;
72590;SDS011;60625;51.212;5.952;2023-05-07T00:37:26;14.70;;;10.80;;
72590;SDS011;60625;51.212;5.952;2023-05-07T00:42:27;14.20;;;10.10;;
72590;SDS011;60625;51.212;5.952;2023-05-07T00:47:28;14.10;;;10.60;;
72590;SDS011;60625;51.212;5.952;2023-05-07T00:52:29;14.00;;;10.40;;
72590;SDS011;60625;51.212;5.952;2023-05-07T00:57:33;17.50;;;11.40;;
72590;SDS011;60625;51.212;5.952;2023-05-07T01:02:38;17.90;;;12.60;;
72590;SDS011;60625;51.212;5.952;2023-05-07T01:07:40;17.20;;;11.90;;
72590;SDS011;60625;51.212;5.952;2023-05-07T01:12:43;16.20;;;12.80;;
72590;SDS011;60625;51.212;5.952;2023-05-07T01:17:44;20.30;;;13.10;;
72590;SDS011;60625;51.212;5.952;2023-05-07T01:22:50;15.60;;;11.90;;
72590;SDS011;60625;51.212;5.952;2023-05-07T01:27:51;19.20;;;13.30;;
72590;SDS011;60625;51.212;5.952;2023-05-07T01:32:58;18.00;;;13.00;;
72590;SDS011;60625;51.212;5.952;2023-05-07T01:38:05;20.20;;;13.10;;
72590;SDS011;60625;51.212;5.952;2023-05-07T01:43:06;18.10;;;13.00;;
72590;SDS011;60625;51.212;5.952;2023-05-07T01:48:10;19.10;;;13.00;;
72590;SDS011;60625;51.212;5.952;2023-05-07T01:53:11;16.50;;;11.80;;
72590;SDS011;60625;51.212;5.952;2023-05-07T01:58:12;17.60;;;11.80;;
72590;SDS011;60625;51.212;5.952;2023-05-07T02:03:13;17.90;;;12.60;;
72590;SDS011;60625;51.212;5.952;2023-05-07T02:08:25;17.90;;;13.70;;
72590;SDS011;60625;51.212;5.952;2023-05-07T02:13:30;17.70;;;12.90;;
72590;SDS011;60625;51.212;5.952;2023-05-07T02:18:32;20.00;;;13.90;;
72590;SDS011;60625;51.212;5.952;2023-05-07T02:23:33;19.40;;;13.80;;
72590;SDS011;60625;51.212;5.952;2023-05-07T02:28:35;20.50;;;14.10;;
72590;SDS011;60625;51.212;5.952;2023-05-07T02:33:37;20.00;;;12.90;;
72590;SDS011;60625;51.212;5.952;2023-05-07T02:38:40;20.10;;;13.00;;
72590;SDS011;60625;51.212;5.952;2023-05-07T02:43:41;18.40;;;13.80;;
72590;SDS011;60625;51.212;5.952;2023-05-07T02:48:41;19.40;;;13.40;;
72590;SDS011;60625;51.212;5.952;2023-05-07T02:53:43;18.60;;;12.90;;
72590;SDS011;60625;51.212;5.952;2023-05-07T02:58:44;15.30;;;11.60;;
72590;SDS011;60625;51.212;5.952;2023-05-07T03:03:45;20.40;;;13.90;;
72590;SDS011;60625;51.212;5.952;2023-05-07T03:08:45;19.50;;;12.90;;
72590;SDS011;60625;51.212;5.952;2023-05-07T03:13:46;18.20;;;13.30;;
72590;SDS011;60625;51.212;5.952;2023-05-07T03:18:47;19.10;;;12.60;;
72590;SDS011;60625;51.212;5.952;2023-05-07T03:23:47;19.10;;;13.70;;
72590;SDS011;60625;51.212;5.952;2023-05-07T03:28:48;21.00;;;12.90;;
72590;SDS011;60625;51.212;5.952;2023-05-07T03:33:54;17.60;;;12.50;;
72590;SDS011;60625;51.212;5.952;2023-05-07T03:38:57;17.70;;;13.20;;
72590;SDS011;60625;51.212;5.952;2023-05-07T03:43:59;18.30;;;13.10;;
72590;SDS011;60625;51.212;5.952;2023-05-07T03:49:00;20.30;;;13.00;;
72590;SDS011;60625;51.212;5.952;2023-05-07T03:54:01;16.40;;;12.10;;
72590;SDS011;60625;51.212;5.952;2023-05-07T03:59:02;18.10;;;12.30;;
72590;SDS011;60625;51.212;5.952;2023-05-07T04:04:04;18.90;;;12.20;;
72590;SDS011;60625;51.212;5.952;2023-05-07T04:09:07;17.80;;;12.00;;
72590;SDS011;60625;51.212;5.952;2023-05-07T04:14:08;17.90;;;12.20;;
72590;SDS011;60625;51.212;5.952;2023-05-07T04:19:09;20.20;;;12.80;;
72590;SDS011;60625;51.212;5.952;2023-05-07T04:24:10;17.90;;;11.50;;
72590;SDS011;60625;51.212;5.952;2023-05-07T04:29:11;17.10;;;11.70;;
72590;SDS011;60625;51.212;5.952;2023-05-07T04:34:12;15.80;;;11.10;;
72590;SDS011;60625;51.212;5.952;2023-05-07T04:39:14;16.70;;;10.60;;
72590;SDS011;60625;51.212;5.952;2023-05-07T04:44:16;16.30;;;10.10;;
72590;SDS011;60625;51.212;5.952;2023-05-07T04:49:17;19.70;;;11.00;;
72590;SDS011;60625;51.212;5.952;2023-05-07T04:54:18;19.70;;;11.80;;
72590;SDS011;60625;51.212;5.952;2023-05-07T04:59:19;18.00;;;11.40;;
72590;SDS011;60625;51.212;5.952;2023-05-07T05:04:21;16.20;;;9.80;;
72590;SDS011;60625;51.212;5.952;2023-05-07T05:09:22;23.80;;;11.70;;
72590;SDS011;60625;51.212;5.952;2023-05-07T05:14:22;22.10;;;11.10;;
72590;SDS011;60625;51.212;5.952;2023-05-07T05:19:24;22.60;;;12.60;;
72590;SDS011;60625;51.212;5.952;2023-05-07T05:24:25;20.00;;;11.20;;
72590;SDS011;60625;51.212;5.952;2023-05-07T05:29:25;20.80;;;10.90;;
72590;SDS011;60625;51.212;5.952;2023-05-07T05:34:26;21.10;;;10.50;;
72590;SDS011;60625;51.212;5.952;2023-05-07T05:39:28;22.30;;;11.60;;
72590;SDS011;60625;51.212;5.952;2023-05-07T05:44:29;18.70;;;10.60;;
72590;SDS011;60625;51.212;5.952;2023-05-07T05:49:29;23.30;;;10.10;;
72590;SDS011;60625;51.212;5.952;2023-05-07T05:54:30;16.30;;;9.30;;
72590;SDS011;60625;51.212;5.952;2023-05-07T05:59:31;16.50;;;10.20;;
72590;SDS011;60625;51.212;5.952;2023-05-07T06:04:32;21.40;;;9.70;;
72590;SDS011;60625;51.212;5.952;2023-05-07T06:09:32;16.90;;;10.10;;
72590;SDS011;60625;51.212;5.952;2023-05-07T06:14:33;21.10;;;10.80;;
72590;SDS011;60625;51.212;5.952;2023-05-07T06:19:34;17.50;;;9.80;;
72590;SDS011;60625;51.212;5.952;2023-05-07T06:24:35;20.50;;;8.80;;
72590;SDS011;60625;51.212;5.952;2023-05-07T06:29:36;15.70;;;8.60;;
72590;SDS011;60625;51.212;5.952;2023-05-07T06:34:40;17.00;;;8.60;;
72590;SDS011;60625;51.212;5.952;2023-05-07T06:39:41;15.30;;;8.90;;
72590;SDS011;60625;51.212;5.952;2023-05-07T06:44:42;18.20;;;8.40;;
72590;SDS011;60625;51.212;5.952;2023-05-07T06:49:45;16.60;;;8.60;;
72590;SDS011;60625;51.212;5.952;2023-05-07T06:54:48;14.60;;;7.80;;
72590;SDS011;60625;51.212;5.952;2023-05-07T06:59:52;16.00;;;8.60;;
72590;SDS011;60625;51.212;5.952;2023-05-07T07:04:53;18.40;;;9.40;;
72590;SDS011;60625;51.212;5.952;2023-05-07T07:09:54;16.90;;;8.90;;
72590;SDS011;60625;51.212;5.952;2023-05-07T07:14:55;17.40;;;8.10;;
72590;SDS011;60625;51.212;5.952;2023-05-07T07:19:57;16.10;;;8.40;;
72590;SDS011;60625;51.212;5.952;2023-05-07T07:24:57;17.00;;;8.10;;
72590;SDS011;60625;51.212;5.952;2023-05-07T07:29:58;14.00;;;7.30;;
72590;SDS011;60625;51.212;5.952;2023-05-07T07:34:59;13.60;;;7.10;;
72590;SDS011;60625;51.212;5.952;2023-05-07T07:40:01;15.60;;;7.30;;
72590;SDS011;60625;51.212;5.952;2023-05-07T07:45:03;14.30;;;6.70;;
72590;SDS011;60625;51.212;5.952;2023-05-07T07:50:07;16.30;;;8.50;;
72590;SDS011;60625;51.212;5.952;2023-05-07T07:55:08;17.20;;;8.90;;
72590;SDS011;60625;51.212;5.952;2023-05-07T08:00:10;14.80;;;8.60;;
72590;SDS011;60625;51.212;5.952;2023-05-07T08:05:17;14.60;;;8.50;;
72590;SDS011;60625;51.212;5.952;2023-05-07T08:10:17;16.40;;;8.50;;
72590;SDS011;60625;51.212;5.952;2023-05-07T08:15:22;16.60;;;8.40;;
72590;SDS011;60625;51.212;5.952;2023-05-07T08:20:23;19.40;;;8.10;;
72590;SDS011;60625;51.212;5.952;2023-05-07T08:25:24;12.50;;;7.30;;
72590;SDS011;60625;51.212;5.952;2023-05-07T08:30:25;15.70;;;7.00;;
72590;SDS011;60625;51.212;5.952;2023-05-07T08:35:26;15.00;;;6.90;;
72590;SDS011;60625;51.212;5.952;2023-05-07T08:40:29;14.30;;;7.80;;
72590;SDS011;60625;51.212;5.952;2023-05-07T08:45:33;15.10;;;7.90;;
72590;SDS011;60625;51.212;5.952;2023-05-07T08:50:35;12.60;;;6.20;;
72590;SDS011;60625;51.212;5.952;2023-05-07T08:55:37;11.70;;;6.20;;
72590;SDS011;60625;51.212;5.952;2023-05-07T09:00:38;11.80;;;5.60;;
72590;SDS011;60625;51.212;5.952;2023-05-07T09:05:41;12.00;;;5.60;;
72590;SDS011;60625;51.212;5.952;2023-05-07T09:10:42;8.20;;;4.30;;
72590;SDS011;60625;51.212;5.952;2023-05-07T09:15:43;7.70;;;4.30;;
72590;SDS011;60625;51.212;5.952;2023-05-07T09:20:44;11.70;;;5.10;;
72590;SDS011;60625;51.212;5.952;2023-05-07T09:25:44;9.20;;;5.10;;
72590;SDS011;60625;51.212;5.952;2023-05-07T09:30:56;8.40;;;5.40;;
72590;SDS011;60625;51.212;5.952;2023-05-07T09:35:57;9.30;;;5.30;;
72590;SDS011;60625;51.212;5.952;2023-05-07T09:41:11;7.90;;;4.20;;
72590;SDS011;60625;51.212;5.952;2023-05-07T09:46:34;6.70;;;3.60;;
72590;SDS011;60625;51.212;5.952;2023-05-07T09:51:45;7.50;;;3.90;;
72590;SDS011;60625;51.212;5.952;2023-05-07T09:56:52;7.30;;;3.70;;
72590;SDS011;60625;51.212;5.952;2023-05-07T10:01:56;8.70;;;3.20;;
72590;SDS011;60625;51.212;5.952;2023-05-07T10:06:59;5.50;;;2.20;;
72590;SDS011;60625;51.212;5.952;2023-05-07T10:12:01;6.90;;;2.30;;
72590;SDS011;60625;51.212;5.952;2023-05-07T10:17:03;6.50;;;2.10;;
72590;SDS011;60625;51.212;5.952;2023-05-07T10:22:05;6.50;;;1.80;;
72590;SDS011;60625;51.212;5.952;2023-05-07T10:27:11;6.60;;;2.00;;
72590;SDS011;60625;51.212;5.952;2023-05-07T10:32:39;6.30;;;2.20;;
72590;SDS011;60625;51.212;5.952;2023-05-07T10:37:50;4.70;;;2.00;;
72590;SDS011;60625;51.212;5.952;2023-05-07T10:42:57;5.90;;;1.90;;
72590;SDS011;60625;51.212;5.952;2023-05-07T10:48:15;4.40;;;1.60;;
72590;SDS011;60625;51.212;5.952;2023-05-07T10:58:39;4.30;;;1.80;;
72590;SDS011;60625;51.212;5.952;2023-05-07T11:04:12;5.90;;;1.80;;
72590;SDS011;60625;51.212;5.952;2023-05-07T11:14:53;5.10;;;1.70;;
72590;SDS011;60625;51.212;5.952;2023-05-07T11:19:58;4.60;;;2.10;;
72590;SDS011;60625;51.212;5.952;2023-05-07T11:25:08;5.40;;;2.10;;
72590;SDS011;60625;51.212;5.952;2023-05-07T11:30:09;7.50;;;1.90;;
72590;SDS011;60625;51.212;5.952;2023-05-07T11:35:11;4.00;;;1.70;;
72590;SDS011;60625;51.212;5.952;2023-05-07T11:40:12;4.90;;;1.50;;
72590;SDS011;60625;51.212;5.952;2023-05-07T11:45:23;3.20;;;1.50;;
72590;SDS011;60625;51.212;5.952;2023-05-07T11:50:27;4.80;;;1.60;;
72590;SDS011;60625;51.212;5.952;2023-05-07T11:55:27;4.60;;;1.30;;
72590;SDS011;60625;51.212;5.952;2023-05-07T12:00:28;3.60;;;1.10;;
72590;SDS011;60625;51.212;5.952;2023-05-07T12:05:28;4.40;;;1.20;;
72590;SDS011;60625;51.212;5.952;2023-05-07T12:10:29;4.40;;;1.30;;
72590;SDS011;60625;51.212;5.952;2023-05-07T12:15:30;4.00;;;1.40;;
72590;SDS011;60625;51.212;5.952;2023-05-07T12:20:30;4.80;;;1.70;;
72590;SDS011;60625;51.212;5.952;2023-05-07T12:25:32;4.90;;;1.40;;
72590;SDS011;60625;51.212;5.952;2023-05-07T12:30:48;8.90;;;1.60;;
72590;SDS011;60625;51.212;5.952;2023-05-07T12:35:49;4.30;;;2.00;;
72590;SDS011;60625;51.212;5.952;2023-05-07T12:40:53;5.50;;;1.80;;
72590;SDS011;60625;51.212;5.952;2023-05-07T12:45:57;4.50;;;1.70;;
72590;SDS011;60625;51.212;5.952;2023-05-07T12:51:00;4.20;;;1.40;;
72590;SDS011;60625;51.212;5.952;2023-05-07T12:56:02;5.40;;;1.60;;
72590;SDS011;60625;51.212;5.952;2023-05-07T13:01:07;5.00;;;1.70;;
72590;SDS011;60625;51.212;5.952;2023-05-07T13:06:09;4.80;;;2.50;;
72590;SDS011;60625;51.212;5.952;2023-05-07T13:11:13;4.70;;;2.10;;
72590;SDS011;60625;51.212;5.952;2023-05-07T13:16:13;6.80;;;2.30;;
72590;SDS011;60625;51.212;5.952;2023-05-07T13:21:14;8.10;;;2.40;;
72590;SDS011;60625;51.212;5.952;2023-05-07T13:26:14;7.00;;;2.50;;
72590;SDS011;60625;51.212;5.952;2023-05-07T13:31:15;5.10;;;2.40;;
72590;SDS011;60625;51.212;5.952;2023-05-07T13:36:16;6.20;;;1.70;;
72590;SDS011;60625;51.212;5.952;2023-05-07T13:41:17;5.60;;;1.80;;
72590;SDS011;60625;51.212;5.952;2023-05-07T13:46:18;5.60;;;1.90;;
72590;SDS011;60625;51.212;5.952;2023-05-07T13:51:19;6.70;;;1.50;;
72590;SDS011;60625;51.212;5.952;2023-05-07T13:56:19;5.30;;;2.10;;
72590;SDS011;60625;51.212;5.952;2023-05-07T14:01:21;5.50;;;1.60;;
72590;SDS011;60625;51.212;5.952;2023-05-07T14:06:21;4.70;;;1.70;;
72590;SDS011;60625;51.212;5.952;2023-05-07T14:11:22;3.60;;;1.50;;
72590;SDS011;60625;51.212;5.952;2023-05-07T14:16:23;5.80;;;2.10;;
72590;SDS011;60625;51.212;5.952;2023-05-07T14:21:24;5.20;;;1.70;;
72590;SDS011;60625;51.212;5.952;2023-05-07T14:26:24;3.80;;;1.90;;
72590;SDS011;60625;51.212;5.952;2023-05-07T14:31:27;6.50;;;1.80;;
72590;SDS011;60625;51.212;5.952;2023-05-07T14:36:27;6.20;;;2.00;;
72590;SDS011;60625;51.212;5.952;2023-05-07T14:41:28;4.60;;;1.40;;
72590;SDS011;60625;51.212;5.952;2023-05-07T14:46:28;4.70;;;1.70;;
72590;SDS011;60625;51.212;5.952;2023-05-07T14:51:29;4.70;;;1.90;;
72590;SDS011;60625;51.212;5.952;2023-05-07T14:56:29;5.30;;;1.60;;
72590;SDS011;60625;51.212;5.952;2023-05-07T15:01:29;4.40;;;1.60;;
72590;SDS011;60625;51.212;5.952;2023-05-07T15:06:31;5.40;;;1.50;;
72590;SDS011;60625;51.212;5.952;2023-05-07T15:11:32;6.70;;;2.30;;
72590;SDS011;60625;51.212;5.952;2023-05-07T15:16:33;5.30;;;2.00;;
72590;SDS011;60625;51.212;5.952;2023-05-07T15:21:34;8.50;;;4.60;;
72590;SDS011;60625;51.212;5.952;2023-05-07T15:26:36;9.40;;;5.10;;
72590;SDS011;60625;51.212;5.952;2023-05-07T15:31:36;9.30;;;6.10;;
72590;SDS011;60625;51.212;5.952;2023-05-07T15:36:38;9.50;;;5.80;;
72590;SDS011;60625;51.212;5.952;2023-05-07T15:41:39;10.60;;;6.50;;
72590;SDS011;60625;51.212;5.952;2023-05-07T15:46:40;9.50;;;6.70;;
72590;SDS011;60625;51.212;5.952;2023-05-07T15:51:40;9.00;;;5.90;;
72590;SDS011;60625;51.212;5.952;2023-05-07T15:56:40;9.60;;;6.10;;
72590;SDS011;60625;51.212;5.952;2023-05-07T16:01:41;9.30;;;6.60;;
72590;SDS011;60625;51.212;5.952;2023-05-07T16:06:42;12.20;;;7.90;;
72590;SDS011;60625;51.212;5.952;2023-05-07T16:11:47;14.50;;;8.10;;
72590;SDS011;60625;51.212;5.952;2023-05-07T16:16:48;10.80;;;7.30;;
72590;SDS011;60625;51.212;5.952;2023-05-07T16:21:49;11.30;;;8.30;;
72590;SDS011;60625;51.212;5.952;2023-05-07T16:26:49;13.40;;;8.50;;
72590;SDS011;60625;51.212;5.952;2023-05-07T16:31:50;12.70;;;9.50;;
72590;SDS011;60625;51.212;5.952;2023-05-07T16:36:52;14.70;;;9.40;;
72590;SDS011;60625;51.212;5.952;2023-05-07T16:41:52;11.60;;;8.20;;
72590;SDS011;60625;51.212;5.952;2023-05-07T16:46:53;12.00;;;7.80;;
72590;SDS011;60625;51.212;5.952;2023-05-07T16:51:53;13.90;;;7.30;;
72590;SDS011;60625;51.212;5.952;2023-05-07T16:56:54;9.70;;;6.70;;
72590;SDS011;60625;51.212;5.952;2023-05-07T17:01:54;9.10;;;5.90;;
72590;SDS011;60625;51.212;5.952;2023-05-07T17:06:54;9.20;;;5.20;;
72590;SDS011;60625;51.212;5.952;2023-05-07T17:11:56;8.40;;;5.20;;
72590;SDS011;60625;51.212;5.952;2023-05-07T17:16:56;7.50;;;4.10;;
72590;SDS011;60625;51.212;5.952;2023-05-07T17:21:57;8.90;;;5.50;;
72590;SDS011;60625;51.212;5.952;2023-05-07T17:26:57;12.40;;;6.20;;
72590;SDS011;60625;51.212;5.952;2023-05-07T17:31:57;8.60;;;5.00;;
72590;SDS011;60625;51.212;5.952;2023-05-07T17:36:58;8.70;;;4.60;;
72590;SDS011;60625;51.212;5.952;2023-05-07T17:41:59;9.00;;;4.80;;
72590;SDS011;60625;51.212;5.952;2023-05-07T17:46:59;8.00;;;4.80;;
72590;SDS011;60625;51.212;5.952;2023-05-07T17:52:00;9.20;;;4.90;;
72590;SDS011;60625;51.212;5.952;2023-05-07T17:57:01;9.10;;;3.80;;
72590;SDS011;60625;51.212;5.952;2023-05-07T18:02:01;5.60;;;3.60;;
72590;SDS011;60625;51.212;5.952;2023-05-07T18:07:01;6.30;;;3.30;;
72590;SDS011;60625;51.212;5.952;2023-05-07T18:12:02;6.90;;;3.20;;
72590;SDS011;60625;51.212;5.952;2023-05-07T18:17:03;5.70;;;2.80;;
72590;SDS011;60625;51.212;5.952;2023-05-07T18:22:03;5.40;;;2.50;;
72590;SDS011;60625;51.212;5.952;2023-05-07T18:27:04;6.40;;;2.70;;
72590;SDS011;60625;51.212;5.952;2023-05-07T18:32:05;5.80;;;3.00;;
72590;SDS011;60625;51.212;5.952;2023-05-07T18:37:05;6.40;;;3.50;;
72590;SDS011;60625;51.212;5.952;2023-05-07T18:42:06;8.90;;;3.40;;
72590;SDS011;60625;51.212;5.952;2023-05-07T18:47:07;5.90;;;3.00;;
72590;SDS011;60625;51.212;5.952;2023-05-07T18:52:08;5.50;;;3.10;;
72590;SDS011;60625;51.212;5.952;2023-05-07T18:57:09;7.30;;;3.10;;
72590;SDS011;60625;51.212;5.952;2023-05-07T19:02:10;6.50;;;3.50;;
72590;SDS011;60625;51.212;5.952;2023-05-07T19:07:14;6.70;;;3.70;;
72590;SDS011;60625;51.212;5.952;2023-05-07T19:12:16;5.70;;;3.30;;
72590;SDS011;60625;51.212;5.952;2023-05-07T19:17:17;6.50;;;3.20;;
72590;SDS011;60625;51.212;5.952;2023-05-07T19:22:18;8.90;;;3.90;;
72590;SDS011;60625;51.212;5.952;2023-05-07T19:27:18;7.70;;;3.80;;
72590;SDS011;60625;51.212;5.952;2023-05-07T19:32:18;9.10;;;3.20;;
72590;SDS011;60625;51.212;5.952;2023-05-07T19:37:20;6.70;;;3.40;;
72590;SDS011;60625;51.212;5.952;2023-05-07T19:42:24;5.80;;;3.50;;
72590;SDS011;60625;51.212;5.952;2023-05-07T19:47:25;5.50;;;3.50;;
72590;SDS011;60625;51.212;5.952;2023-05-07T19:52:26;6.30;;;3.80;;
72590;SDS011;60625;51.212;5.952;2023-05-07T19:57:26;5.90;;;3.50;;
72590;SDS011;60625;51.212;5.952;2023-05-07T20:02:27;6.30;;;3.10;;
72590;SDS011;60625;51.212;5.952;2023-05-07T20:07:27;6.60;;;3.30;;
72590;SDS011;60625;51.212;5.952;2023-05-07T20:12:28;6.00;;;2.90;;
72590;SDS011;60625;51.212;5.952;2023-05-07T20:17:29;5.30;;;2.90;;
72590;SDS011;60625;51.212;5.952;2023-05-07T20:22:30;6.40;;;3.20;;
72590;SDS011;60625;51.212;5.952;2023-05-07T20:27:33;6.00;;;2.90;;
72590;SDS011;60625;51.212;5.952;2023-05-07T20:32:34;6.00;;;3.00;;
72590;SDS011;60625;51.212;5.952;2023-05-07T20:37:37;8.10;;;3.90;;
72590;SDS011;60625;51.212;5.952;2023-05-07T20:42:39;6.50;;;4.10;;
72590;SDS011;60625;51.212;5.952;2023-05-07T20:47:39;6.90;;;3.80;;
72590;SDS011;60625;51.212;5.952;2023-05-07T20:52:40;6.20;;;3.20;;
72590;SDS011;60625;51.212;5.952;2023-05-07T20:57:41;11.70;;;3.70;;
72590;SDS011;60625;51.212;5.952;2023-05-07T21:02:43;8.00;;;3.80;;
72590;SDS011;60625;51.212;5.952;2023-05-07T21:07:44;5.60;;;3.90;;
72590;SDS011;60625;51.212;5.952;2023-05-07T21:12:45;7.10;;;4.20;;
72590;SDS011;60625;51.212;5.952;2023-05-07T21:17:46;8.50;;;3.90;;
72590;SDS011;60625;51.212;5.952;2023-05-07T21:22:46;9.00;;;5.10;;
72590;SDS011;60625;51.212;5.952;2023-05-07T21:27:47;8.60;;;6.20;;
72590;SDS011;60625;51.212;5.952;2023-05-07T21:32:47;8.60;;;6.10;;
72590;SDS011;60625;51.212;5.952;2023-05-07T21:37:48;9.50;;;6.10;;
72590;SDS011;60625;51.212;5.952;2023-05-07T21:42:48;9.20;;;6.30;;
72590;SDS011;60625;51.212;5.952;2023-05-07T21:47:49;8.60;;;6.30;;
72590;SDS011;60625;51.212;5.952;2023-05-07T21:52:49;8.30;;;5.70;;
72590;SDS011;60625;51.212;5.952;2023-05-07T21:57:50;8.20;;;5.90;;
72590;SDS011;60625;51.212;5.952;2023-05-07T22:02:50;8.20;;;5.60;;
72590;SDS011;60625;51.212;5.952;2023-05-07T22:07:51;9.70;;;6.30;;
72590;SDS011;60625;51.212;5.952;2023-05-07T22:12:51;9.50;;;6.40;;
72590;SDS011;60625;51.212;5.952;2023-05-07T22:17:52;8.80;;;6.30;;
72590;SDS011;60625;51.212;5.952;2023-05-07T22:22:54;9.80;;;5.80;;
72590;SDS011;60625;51.212;5.952;2023-05-07T22:27:55;7.20;;;5.40;;
72590;SDS011;60625;51.212;5.952;2023-05-07T22:32:56;7.10;;;5.30;;
72590;SDS011;60625;51.212;5.952;2023-05-07T22:37:56;9.90;;;6.40;;
72590;SDS011;60625;51.212;5.952;2023-05-07T22:42:58;11.30;;;7.70;;
72590;SDS011;60625;51.212;5.952;2023-05-07T22:47:58;9.50;;;6.90;;
72590;SDS011;60625;51.212;5.952;2023-05-07T22:52:58;8.80;;;6.40;;
72590;SDS011;60625;51.212;5.952;2023-05-07T22:57:59;11.30;;;6.50;;
72590;SDS011;60625;51.212;5.952;2023-05-07T23:02:59;9.50;;;6.80;;
72590;SDS011;60625;51.212;5.952;2023-05-07T23:08:00;10.70;;;8.10;;
72590;SDS011;60625;51.212;5.952;2023-05-07T23:13:01;11.60;;;8.40;;
72590;SDS011;60625;51.212;5.952;2023-05-07T23:18:02;12.90;;;8.30;;
72590;SDS011;60625;51.212;5.952;2023-05-07T23:23:02;11.80;;;8.70;;
72590;SDS011;60625;51.212;5.952;2023-05-07T23:28:03;9.80;;;7.50;;
72590;SDS011;60625;51.212;5.952;2023-05-07T23:33:03;11.00;;;7.70;;
72590;SDS011;60625;51.212;5.952;2023-05-07T23:38:04;9.30;;;7.40;;
72590;SDS011;60625;51.212;5.952;2023-05-07T23:43:04;12.30;;;7.30;;
72590;SDS011;60625;51.212;5.952;2023-05-07T23:48:05;12.10;;;7.40;;
72590;SDS011;60625;51.212;5.952;2023-05-07T23:53:05;10.20;;;7.50;;
72590;SDS011;60625;51.212;5.952;2023-05-07T23:58:06;13.60;;;9.00;;
